Terminal Aerodrome Forecast
Issued by NWS Sterling, VA

Current Version | Previous Version | Graphics & Text | Print | Product List | Glossary On
Versions: 1 2 3 4 5 6 7 8 9 10 11 12 13
000
FTUS41 KLWX 181738
TAFMRB
TAF
KMRB 181738Z 1818/1918 20010KT P6SM BKN250
     FM190000 26006KT P6SM OVC130
     FM190600 27004KT P6SM BKN060
     FM191400 30010KT P6SM SCT060=

USA.gov is the U.S. government's official web portal to all federal, state and local government web resources and services.